createdAt,value
2018-08-18T00:00:19.312Z,17.99
2018-08-18T00:02:47.997Z,17.97
2018-08-18T00:05:17.400Z,18.07
2018-08-18T00:07:46.108Z,17.87
2018-08-18T00:10:17.692Z,18.05
2018-08-18T00:12:46.450Z,17.94
2018-08-18T00:15:15.163Z,17.94
2018-08-18T00:17:43.855Z,17.85
2018-08-18T00:20:15.558Z,17.67
2018-08-18T00:22:44.396Z,17.68
2018-08-18T00:25:13.069Z,17.72
2018-08-18T00:27:42.323Z,17.78
2018-08-18T00:30:16.636Z,17.72
2018-08-18T00:32:45.576Z,17.64
2018-08-18T00:35:14.287Z,17.62
2018-08-18T00:37:43.241Z,17.56
2018-08-18T00:40:12.495Z,17.62
2018-08-18T00:42:41.480Z,17.65
2018-08-18T00:45:11.484Z,17.69
2018-08-18T00:47:40.246Z,17.74
2018-08-18T00:50:09.914Z,17.79
2018-08-18T00:52:38.881Z,17.70
2018-08-18T00:55:07.937Z,17.69
2018-08-18T00:57:36.564Z,17.66
2018-08-18T01:00:06.368Z,17.62
2018-08-18T01:02:35.353Z,17.60
2018-08-18T01:05:05.486Z,17.53
2018-08-18T01:07:34.261Z,17.62
2018-08-18T01:10:03.300Z,17.64
2018-08-18T01:12:32.248Z,17.73
2018-08-18T01:15:00.825Z,17.63
2018-08-18T01:17:29.456Z,17.74
2018-08-18T01:19:58.953Z,17.94
2018-08-18T01:22:27.682Z,18.10
2018-08-18T01:24:56.389Z,18.14
2018-08-18T01:27:25.096Z,18.20
2018-08-18T01:30:01.971Z,18.23
2018-08-18T01:32:31.471Z,18.34
2018-08-18T01:35:00.852Z,18.27
2018-08-18T01:37:31.042Z,18.23
2018-08-18T01:39:59.846Z,18.26
2018-08-18T01:42:29.511Z,18.32
2018-08-18T01:44:58.177Z,18.53
2018-08-18T01:47:26.885Z,18.32
2018-08-18T01:49:55.695Z,18.47
2018-08-18T01:52:25.488Z,18.52
2018-08-18T01:54:54.128Z,18.44
2018-08-18T01:57:23.527Z,18.38
2018-08-18T01:59:54.301Z,18.22
2018-08-18T02:02:25.600Z,18.19
2018-08-18T02:04:54.844Z,18.02
2018-08-18T02:07:33.083Z,18.05
2018-08-18T02:10:01.869Z,18.08
2018-08-18T02:12:30.562Z,18.18
2018-08-18T02:15:00.015Z,18.35
2018-08-18T02:17:37.840Z,18.18
2018-08-18T02:20:09.164Z,18.18
2018-08-18T02:22:37.773Z,18.11
2018-08-18T02:25:06.591Z,17.96
2018-08-18T02:27:35.349Z,17.88
2018-08-18T02:30:15.876Z,17.81
2018-08-18T02:32:44.605Z,17.69
2018-08-18T02:35:13.341Z,17.76
2018-08-18T02:37:42.029Z,17.53
2018-08-18T02:40:14.117Z,17.43
2018-08-18T02:42:42.750Z,17.38
2018-08-18T02:45:12.172Z,17.25
2018-08-18T02:47:40.983Z,17.22
2018-08-18T02:50:10.991Z,16.94
2018-08-18T02:52:39.788Z,16.90
2018-08-18T02:55:10.287Z,16.82
2018-08-18T02:57:42.425Z,16.72
2018-08-18T03:00:22.700Z,16.63
2018-08-18T03:02:51.601Z,16.36
2018-08-18T03:05:20.598Z,16.28
2018-08-18T03:07:50.198Z,16.17
2018-08-18T03:10:25.997Z,16.14
2018-08-18T03:12:57.203Z,16.13
2018-08-18T03:16:06.644Z,16.00
2018-08-18T03:18:42.273Z,15.86
2018-08-18T03:21:10.960Z,15.81
2018-08-18T03:23:49.762Z,15.76
2018-08-18T03:26:20.960Z,15.85
2018-08-18T03:28:50.941Z,15.99
2018-08-18T03:31:19.930Z,16.00
2018-08-18T03:33:48.659Z,16.14
2018-08-18T03:36:29.869Z,16.06
2018-08-18T03:38:58.869Z,15.99
2018-08-18T03:41:28.490Z,15.99
2018-08-18T03:43:57.834Z,15.63
2018-08-18T03:46:26.585Z,15.57
2018-08-18T03:48:55.344Z,15.75
2018-08-18T03:51:28.505Z,15.76
2018-08-18T03:53:57.472Z,15.71
2018-08-18T03:56:26.111Z,15.80
2018-08-18T03:58:55.999Z,16.08
2018-08-18T04:02:00.494Z,16.02
2018-08-18T04:04:35.276Z,15.93
2018-08-18T04:07:05.370Z,15.92
2018-08-18T04:09:36.068Z,16.03
2018-08-18T04:12:06.032Z,16.12
2018-08-18T04:14:42.932Z,16.12
2018-08-18T04:17:23.774Z,16.24
2018-08-18T04:19:52.468Z,16.17
2018-08-18T04:22:22.727Z,16.18
2018-08-18T04:24:51.452Z,16.11
2018-08-18T04:27:43.495Z,16.07
2018-08-18T04:30:15.444Z,16.18
2018-08-18T04:32:53.738Z,16.15
2018-08-18T04:35:25.658Z,16.16
2018-08-18T04:37:55.120Z,16.26
2018-08-18T04:40:24.436Z,16.35
2018-08-18T04:42:55.571Z,16.41
2018-08-18T04:45:24.895Z,16.65
2018-08-18T04:47:53.618Z,16.50
2018-08-18T04:50:22.748Z,16.62
2018-08-18T04:52:53.060Z,16.56
2018-08-18T04:55:21.939Z,16.67
2018-08-18T04:57:51.839Z,16.72
2018-08-18T05:00:20.576Z,16.93
2018-08-18T05:02:54.679Z,16.90
2018-08-18T05:05:26.776Z,16.98
2018-08-18T05:07:56.852Z,16.90
2018-08-18T05:10:25.936Z,16.91
2018-08-18T05:12:54.680Z,17.01
2018-08-18T05:15:23.420Z,16.79
2018-08-18T05:17:52.150Z,17.00
2018-08-18T05:20:22.741Z,17.08
2018-08-18T05:22:51.418Z,17.11
2018-08-18T05:25:26.845Z,17.02
2018-08-18T05:27:55.552Z,17.04
2018-08-18T05:30:24.790Z,16.95
2018-08-18T05:32:53.416Z,16.98
2018-08-18T05:35:22.155Z,17.15
2018-08-18T05:37:50.837Z,17.16
2018-08-18T05:40:19.540Z,17.31
2018-08-18T05:42:48.275Z,17.36
2018-08-18T05:45:31.089Z,17.33
2018-08-18T05:47:59.891Z,17.43
2018-08-18T05:50:29.561Z,17.38
2018-08-18T05:53:24.555Z,17.55
2018-08-18T05:55:53.232Z,17.59
2018-08-18T05:58:22.016Z,17.61
2018-08-18T06:01:22.740Z,17.79
2018-08-18T06:03:57.326Z,17.83
2018-08-18T06:06:26.224Z,17.80
2018-08-18T06:08:57.888Z,17.85
2018-08-18T06:11:26.713Z,17.93
2018-08-18T06:13:55.716Z,17.95
2018-08-18T06:16:24.381Z,17.95
2018-08-18T06:18:53.165Z,18.12
2018-08-18T06:21:21.874Z,18.21
2018-08-18T06:23:50.564Z,18.23
2018-08-18T06:26:19.311Z,18.47
2018-08-18T06:28:49.234Z,18.91
2018-08-18T06:31:18.148Z,19.20
2018-08-18T06:33:46.837Z,19.55
2018-08-18T06:36:15.539Z,19.84
2018-08-18T06:38:44.206Z,20.05
2018-08-18T06:41:12.994Z,20.16
2018-08-18T06:43:41.804Z,20.73
2018-08-18T06:46:10.501Z,21.02
2018-08-18T06:48:39.867Z,20.98
2018-08-18T06:51:08.944Z,21.06
2018-08-18T06:53:44.132Z,21.08
2018-08-18T06:56:12.930Z,20.85
2018-08-18T06:58:41.605Z,20.86
2018-08-18T07:01:11.187Z,21.28
2018-08-18T07:03:42.816Z,21.21
2018-08-18T07:06:14.477Z,21.44
2018-08-18T07:08:48.954Z,21.74
2018-08-18T07:11:17.654Z,21.99
2018-08-18T07:13:47.857Z,22.14
2018-08-18T07:16:16.655Z,21.89
2018-08-18T07:18:45.537Z,21.94
2018-08-18T07:21:14.288Z,22.14
2018-08-18T07:23:43.083Z,22.33
2018-08-18T07:26:11.829Z,22.53
2018-08-18T07:28:40.640Z,22.39
2018-08-18T07:31:09.442Z,22.29
2018-08-18T07:33:38.134Z,22.34
2018-08-18T07:36:06.907Z,22.27
2018-08-18T07:38:35.604Z,22.55
2018-08-18T07:41:04.353Z,22.91
2018-08-18T07:43:34.384Z,22.98
2018-08-18T07:46:04.796Z,22.93
2018-08-18T07:48:33.601Z,23.10
2018-08-18T07:51:02.327Z,23.27
2018-08-18T07:53:32.097Z,23.20
2018-08-18T07:56:00.884Z,23.14
2018-08-18T07:58:29.582Z,23.56
2018-08-18T08:01:00.164Z,23.46
2018-08-18T08:03:30.634Z,23.45
2018-08-18T08:06:00.385Z,23.85
2018-08-18T08:08:35.196Z,23.99
2018-08-18T08:11:09.400Z,24.32
2018-08-18T08:13:38.907Z,24.32
2018-08-18T08:16:07.612Z,23.90
2018-08-18T08:18:36.399Z,24.40
2018-08-18T08:21:05.173Z,25.03
2018-08-18T08:23:33.947Z,25.44
2018-08-18T08:26:03.509Z,24.90
2018-08-18T08:28:32.948Z,25.19
2018-08-18T08:31:01.624Z,25.40
2018-08-18T08:33:37.233Z,25.83
2018-08-18T08:36:09.268Z,25.16
2018-08-18T08:38:51.476Z,25.37
2018-08-18T08:41:22.475Z,24.95
2018-08-18T08:43:51.158Z,25.59
2018-08-18T08:46:20.361Z,25.48
2018-08-18T08:48:53.485Z,26.45
2018-08-18T08:51:22.843Z,26.28
2018-08-18T08:53:52.617Z,26.34
2018-08-18T08:56:29.665Z,25.82
2018-08-18T08:58:58.821Z,25.97
2018-08-18T09:01:27.437Z,25.43
2018-08-18T09:03:56.163Z,25.62
2018-08-18T09:06:24.908Z,25.16
2018-08-18T09:08:57.516Z,25.34
2018-08-18T09:11:26.779Z,25.15
2018-08-18T09:14:03.568Z,26.03
2018-08-18T09:16:33.191Z,26.68
2018-08-18T09:19:01.904Z,25.90
2018-08-18T09:22:04.861Z,26.63
2018-08-18T09:24:34.483Z,27.11
2018-08-18T09:27:05.146Z,27.49
2018-08-18T09:29:39.332Z,27.08
2018-08-18T09:32:08.074Z,26.92
2018-08-18T09:34:41.848Z,26.65
2018-08-18T09:37:11.108Z,27.17
2018-08-18T09:39:39.876Z,26.82
2018-08-18T09:42:10.104Z,27.34
2018-08-18T09:44:45.601Z,27.45
2018-08-18T09:47:14.303Z,27.34
2018-08-18T09:49:43.734Z,26.97
2018-08-18T09:52:16.098Z,27.55
2018-08-18T09:54:44.764Z,27.15
2018-08-18T09:57:13.478Z,26.71
2018-08-18T09:59:42.179Z,26.49
2018-08-18T10:02:14.313Z,26.76
2018-08-18T10:04:43.637Z,27.11
2018-08-18T10:07:12.706Z,27.54
2018-08-18T10:09:41.469Z,26.99
2018-08-18T10:12:10.476Z,26.72
2018-08-18T10:14:39.765Z,26.58
2018-08-18T10:17:08.473Z,27.29
2018-08-18T10:19:38.598Z,28.11
2018-08-18T10:22:07.329Z,27.80
2018-08-18T10:24:36.294Z,27.25
2018-08-18T10:27:06.007Z,27.61
2018-08-18T10:29:34.812Z,27.66
2018-08-18T10:32:04.484Z,27.97
2018-08-18T10:34:34.019Z,28.84
2018-08-18T10:37:13.352Z,29.41
2018-08-18T10:39:43.778Z,29.42
2018-08-18T10:42:27.418Z,29.73
2018-08-18T10:45:00.257Z,29.37
2018-08-18T10:47:29.559Z,30.03
2018-08-18T10:50:09.804Z,30.24
2018-08-18T10:52:49.942Z,29.85
2018-08-18T10:55:19.404Z,29.74
2018-08-18T10:57:56.952Z,30.18
2018-08-18T11:00:27.026Z,29.65
2018-08-18T11:02:57.891Z,30.25
2018-08-18T11:05:27.200Z,29.93
2018-08-18T11:08:02.107Z,30.08
2018-08-18T11:10:32.104Z,30.15
2018-08-18T11:13:01.078Z,30.56
2018-08-18T11:15:29.744Z,30.12
2018-08-18T11:17:59.111Z,30.02
2018-08-18T11:20:29.355Z,29.44
2018-08-18T11:23:00.363Z,29.58
2018-08-18T11:25:31.316Z,29.45
2018-08-18T11:28:00.293Z,29.54
2018-08-18T11:30:29.328Z,29.11
2018-08-18T11:32:58.854Z,28.18
2018-08-18T11:35:27.775Z,27.86
2018-08-18T11:37:57.887Z,27.93
2018-08-18T11:40:27.442Z,28.28
2018-08-18T11:43:00.591Z,28.39
2018-08-18T11:45:31.588Z,28.48
2018-08-18T11:48:19.052Z,29.04
2018-08-18T11:50:49.200Z,29.02
2018-08-18T11:53:17.879Z,29.16
2018-08-18T11:55:46.631Z,29.38
2018-08-18T11:58:20.601Z,29.29
2018-08-18T12:00:54.672Z,29.15
2018-08-18T12:03:29.551Z,29.42
2018-08-18T12:06:00.363Z,29.36
2018-08-18T12:08:30.308Z,29.63
2018-08-18T12:11:00.464Z,29.74
2018-08-18T12:13:34.440Z,29.46
2018-08-18T12:16:07.029Z,29.42
2018-08-18T12:18:37.710Z,29.67
2018-08-18T12:21:06.417Z,30.04
2018-08-18T12:23:36.876Z,30.10
2018-08-18T12:26:24.334Z,29.53
2018-08-18T12:28:55.884Z,29.50
2018-08-18T12:31:26.823Z,28.75
2018-08-18T12:33:55.604Z,29.03
2018-08-18T12:36:24.719Z,27.89
2018-08-18T12:38:55.094Z,28.16
2018-08-18T12:41:24.115Z,27.99
2018-08-18T12:43:54.598Z,28.43
2018-08-18T12:46:24.556Z,28.26
2018-08-18T12:48:54.336Z,28.28
2018-08-18T12:51:23.354Z,28.99
2018-08-18T12:53:54.328Z,29.29
2018-08-18T12:56:25.664Z,29.13
2018-08-18T12:58:54.452Z,29.73
2018-08-18T13:01:51.847Z,29.29
2018-08-18T13:04:21.705Z,28.20
2018-08-18T13:06:52.564Z,29.22
2018-08-18T13:09:23.510Z,30.13
2018-08-18T13:11:53.600Z,29.20
2018-08-18T13:14:24.889Z,28.95
2018-08-18T13:16:54.174Z,28.89
2018-08-18T13:19:24.384Z,28.83
2018-08-18T13:21:53.091Z,28.25
2018-08-18T13:24:21.756Z,28.30
2018-08-18T13:26:50.809Z,28.75
2018-08-18T13:29:19.994Z,28.69
2018-08-18T13:31:48.668Z,28.76
2018-08-18T13:34:18.987Z,28.37
2018-08-18T13:36:48.044Z,28.42
2018-08-18T13:39:20.141Z,28.40
2018-08-18T13:41:50.016Z,27.89
2018-08-18T13:44:26.532Z,27.84
2018-08-18T13:46:59.109Z,28.39
2018-08-18T13:49:28.312Z,28.57
2018-08-18T13:51:57.095Z,28.87
2018-08-18T13:54:25.854Z,29.19
2018-08-18T13:56:54.560Z,29.24
2018-08-18T13:59:46.589Z,29.06
2018-08-18T14:02:15.297Z,29.19
2018-08-18T14:04:44.248Z,29.00
2018-08-18T14:07:13.553Z,28.97
2018-08-18T14:09:43.673Z,29.15
2018-08-18T14:12:16.905Z,29.50
2018-08-18T14:14:46.318Z,29.56
2018-08-18T14:17:15.789Z,29.28
2018-08-18T14:19:44.628Z,28.54
2018-08-18T14:22:13.282Z,27.98
2018-08-18T14:24:42.135Z,28.46
2018-08-18T14:27:18.125Z,28.62
2018-08-18T14:29:46.927Z,28.59
2018-08-18T14:32:21.083Z,28.85
2018-08-18T14:35:07.464Z,28.45
2018-08-18T14:37:37.739Z,28.38
2018-08-18T14:40:10.569Z,28.10
2018-08-18T14:42:39.326Z,28.11
2018-08-18T14:45:10.125Z,28.39
2018-08-18T14:47:38.887Z,28.54
2018-08-18T14:50:15.948Z,28.19
2018-08-18T14:52:45.553Z,28.27
2018-08-18T14:55:15.168Z,28.02
2018-08-18T14:58:22.534Z,28.25
2018-08-18T15:00:53.653Z,28.14
2018-08-18T15:03:22.418Z,27.65
2018-08-18T15:05:51.252Z,27.20
2018-08-18T15:08:19.954Z,26.82
2018-08-18T15:10:48.656Z,26.71
2018-08-18T15:13:17.418Z,26.82
2018-08-18T15:15:46.226Z,26.31
2018-08-18T15:18:17.544Z,26.35
2018-08-18T15:20:46.846Z,26.47
2018-08-18T15:23:16.498Z,26.45
2018-08-18T15:25:45.987Z,26.30
2018-08-18T15:28:16.498Z,26.21
2018-08-18T15:30:49.439Z,26.19
2018-08-18T15:33:20.174Z,26.33
2018-08-18T15:35:49.688Z,26.41
2018-08-18T15:38:18.387Z,26.30
2018-08-18T15:40:47.387Z,26.38
2018-08-18T15:43:16.126Z,26.36
2018-08-18T15:46:01.710Z,26.09
2018-08-18T15:48:30.481Z,26.36
2018-08-18T15:50:59.198Z,26.39
2018-08-18T15:53:52.835Z,26.28
2018-08-18T15:56:22.265Z,26.35
2018-08-18T15:58:51.724Z,26.46
2018-08-18T16:01:24.791Z,26.33
2018-08-18T16:03:54.986Z,26.25
2018-08-18T16:06:24.044Z,26.16
2018-08-18T16:08:53.226Z,26.26
2018-08-18T16:11:21.913Z,26.25
2018-08-18T16:13:52.720Z,26.12
2018-08-18T16:16:21.388Z,26.11
2018-08-18T16:18:54.763Z,25.91
2018-08-18T16:21:24.212Z,25.86
2018-08-18T16:23:52.916Z,25.79
2018-08-18T16:26:23.349Z,25.65
2018-08-18T16:28:52.889Z,25.69
2018-08-18T16:31:21.634Z,25.60
2018-08-18T16:33:52.601Z,25.63
2018-08-18T16:36:23.912Z,25.63
2018-08-18T16:38:54.525Z,25.45
2018-08-18T16:41:23.880Z,25.51
2018-08-18T16:43:52.556Z,25.32
2018-08-18T16:46:25.395Z,25.22
2018-08-18T16:48:55.540Z,25.15
2018-08-18T16:51:25.570Z,25.08
2018-08-18T16:53:54.821Z,25.06
2018-08-18T16:56:27.323Z,24.95
2018-08-18T16:59:00.227Z,24.89
2018-08-18T17:01:29.017Z,24.89
2018-08-18T17:03:57.842Z,24.88
2018-08-18T17:06:26.619Z,24.93
2018-08-18T17:08:55.317Z,24.90
2018-08-18T17:11:24.051Z,24.90
2018-08-18T17:13:52.846Z,24.82
2018-08-18T17:16:21.787Z,24.89
2018-08-18T17:18:51.740Z,24.92
2018-08-18T17:21:21.721Z,24.82
2018-08-18T17:23:50.445Z,24.79
2018-08-18T17:26:19.277Z,24.76
2018-08-18T17:28:47.940Z,24.78
2018-08-18T17:31:17.125Z,24.79
2018-08-18T17:33:46.006Z,24.74
2018-08-18T17:36:15.744Z,24.85
2018-08-18T17:38:45.129Z,24.76
2018-08-18T17:41:14.321Z,24.73
2018-08-18T17:43:43.618Z,24.66
2018-08-18T17:46:12.307Z,24.51
2018-08-18T17:48:47.356Z,24.54
2018-08-18T17:51:16.066Z,24.39
2018-08-18T17:53:48.996Z,24.41
2018-08-18T17:56:17.836Z,24.34
2018-08-18T17:58:46.592Z,24.39
2018-08-18T18:01:16.533Z,24.36
2018-08-18T18:03:45.368Z,24.32
2018-08-18T18:06:14.622Z,24.31
2018-08-18T18:08:43.303Z,24.34
2018-08-18T18:11:12.161Z,24.35
2018-08-18T18:13:40.957Z,24.17
2018-08-18T18:16:20.923Z,24.39
2018-08-18T18:18:49.599Z,24.32
2018-08-18T18:21:18.245Z,24.12
2018-08-18T18:23:46.936Z,23.91
2018-08-18T18:26:16.038Z,23.88
2018-08-18T18:28:45.207Z,23.91
2018-08-18T18:31:15.335Z,24.09
2018-08-18T18:33:47.905Z,24.08
2018-08-18T18:36:16.580Z,24.01
2018-08-18T18:38:54.496Z,23.87
2018-08-18T18:41:25.017Z,23.74
2018-08-18T18:44:01.332Z,23.67
2018-08-18T18:46:30.071Z,23.73
2018-08-18T18:48:58.885Z,23.69
2018-08-18T18:51:28.628Z,23.64
2018-08-18T18:53:58.365Z,23.54
2018-08-18T18:56:27.904Z,23.55
2018-08-18T18:58:56.646Z,23.42
2018-08-18T19:01:25.349Z,23.37
2018-08-18T19:03:54.034Z,23.56
2018-08-18T19:06:22.800Z,23.51
2018-08-18T19:09:00.099Z,23.52
2018-08-18T19:11:29.977Z,23.37
2018-08-18T19:13:59.164Z,23.14
2018-08-18T19:16:28.559Z,23.05
2018-08-18T19:18:57.382Z,22.82
2018-08-18T19:21:32.790Z,22.64
2018-08-18T19:24:06.522Z,22.69
2018-08-18T19:26:58.641Z,22.72
2018-08-18T19:29:28.279Z,22.52
2018-08-18T19:32:00.424Z,22.41
2018-08-18T19:34:30.154Z,22.50
2018-08-18T19:37:04.151Z,22.62
2018-08-18T19:39:34.889Z,22.54
2018-08-18T19:42:13.897Z,22.47
2018-08-18T19:44:44.826Z,22.38
2018-08-18T19:47:19.005Z,22.25
2018-08-18T19:49:47.592Z,22.21
2018-08-18T19:52:17.393Z,22.02
2018-08-18T19:54:47.695Z,21.88
2018-08-18T19:57:25.502Z,21.85
2018-08-18T20:00:04.612Z,21.68
2018-08-18T20:02:48.998Z,21.55
2018-08-18T20:05:19.790Z,21.58
2018-08-18T20:07:48.567Z,21.48
2018-08-18T20:10:17.619Z,21.44
2018-08-18T20:12:46.300Z,21.49
2018-08-18T20:15:15.620Z,21.38
2018-08-18T20:17:44.714Z,21.33
2018-08-18T20:20:17.624Z,21.28
2018-08-18T20:22:46.301Z,21.32
2018-08-18T20:25:14.986Z,21.11
2018-08-18T20:27:44.599Z,20.84
2018-08-18T20:30:18.885Z,20.85
2018-08-18T20:32:47.578Z,21.18
2018-08-18T20:35:16.285Z,20.73
2018-08-18T20:37:45.977Z,20.56
2018-08-18T20:40:14.715Z,20.72
2018-08-18T20:42:44.456Z,20.70
2018-08-18T20:45:13.970Z,20.59
2018-08-18T20:47:44.016Z,20.55
2018-08-18T20:50:13.081Z,20.61
2018-08-18T20:52:41.912Z,20.71
2018-08-18T20:55:10.577Z,20.72
2018-08-18T20:57:39.267Z,20.63
2018-08-18T21:00:09.492Z,20.49
2018-08-18T21:02:39.094Z,20.42
2018-08-18T21:05:10.969Z,20.18
2018-08-18T21:07:40.070Z,20.11
2018-08-18T21:10:12.458Z,20.10
2018-08-18T21:12:45.955Z,20.06
2018-08-18T21:15:15.115Z,20.07
2018-08-18T21:17:44.132Z,19.96
2018-08-18T21:20:15.798Z,20.04
2018-08-18T21:22:44.575Z,19.97
2018-08-18T21:25:14.730Z,19.80
2018-08-18T21:27:43.878Z,19.85
2018-08-18T21:30:14.881Z,19.79
2018-08-18T21:32:44.201Z,19.75
2018-08-18T21:35:13.087Z,19.81
2018-08-18T21:37:41.765Z,19.82
2018-08-18T21:40:10.914Z,19.92
2018-08-18T21:42:39.612Z,20.01
2018-08-18T21:45:11.129Z,20.13
2018-08-18T21:47:39.847Z,20.07
2018-08-18T21:50:08.519Z,20.09
2018-08-18T21:52:37.176Z,20.17
2018-08-18T21:55:06.340Z,20.15
2018-08-18T21:57:50.745Z,20.15
2018-08-18T22:00:19.430Z,20.16
2018-08-18T22:02:48.740Z,20.12
2018-08-18T22:05:17.426Z,20.21
2018-08-18T22:07:51.867Z,20.14
2018-08-18T22:10:21.028Z,20.10
2018-08-18T22:12:49.687Z,20.25
2018-08-18T22:15:19.438Z,20.26
2018-08-18T22:17:49.260Z,20.21
2018-08-18T22:20:19.368Z,20.21
2018-08-18T22:22:48.107Z,20.11
2018-08-18T22:25:16.844Z,19.92
2018-08-18T22:27:45.534Z,19.90
2018-08-18T22:30:15.364Z,19.77
2018-08-18T22:32:45.490Z,19.82
2018-08-18T22:35:14.514Z,19.61
2018-08-18T22:37:43.247Z,19.60
2018-08-18T22:40:13.150Z,19.60
2018-08-18T22:42:41.869Z,19.73
2018-08-18T22:45:38.786Z,19.72
2018-08-18T22:48:08.863Z,19.56
2018-08-18T22:50:37.580Z,19.55
2018-08-18T22:53:06.381Z,19.52
2018-08-18T22:55:35.152Z,19.48
2018-08-18T22:58:03.885Z,19.50
2018-08-18T23:00:36.953Z,19.48
2018-08-18T23:03:05.701Z,19.55
2018-08-18T23:05:34.373Z,19.45
2018-08-18T23:08:03.020Z,19.28
2018-08-18T23:10:33.168Z,19.09
2018-08-18T23:13:02.505Z,19.17
2018-08-18T23:15:31.532Z,19.24
2018-08-18T23:18:00.216Z,19.23
2018-08-18T23:20:29.463Z,19.31
2018-08-18T23:23:00.224Z,19.13
2018-08-18T23:25:30.235Z,18.94
2018-08-18T23:27:59.023Z,19.01
2018-08-18T23:30:32.732Z,19.06
2018-08-18T23:33:02.249Z,19.07
2018-08-18T23:35:31.184Z,19.03
2018-08-18T23:38:00.027Z,19.08
2018-08-18T23:40:29.053Z,19.17
2018-08-18T23:42:57.756Z,19.16
2018-08-18T23:45:35.757Z,19.27
2018-08-18T23:48:06.597Z,19.29
2018-08-18T23:50:36.309Z,19.13
2018-08-18T23:53:08.292Z,19.40
2018-08-18T23:55:45.050Z,19.41
2018-08-18T23:58:13.752Z,19.42
